Time;durP1;ratioP1;P1;durP2;ratioP2;P2;SDS_P1;SDS_P2;PMS_P1;PMS_P2;Temp;Humidity;BMP_temperature;BMP_pressure;BME280_temperature;BME280_humidity;BME280_pressure;Samples;Min_cycle;Max_cycle;Signal;HPM_P1;HPM_P2
2023/07/31 00:01:56;;;;;;;5.70;1.80;;;;;;;24.11;52.43;100955.44;5036514;28;20512;-69
2023/07/31 00:04:22;;;;;;;5.57;2.00;;;;;;;24.13;51.76;100942.38;5053392;28;20025;-68
2023/07/31 00:06:47;;;;;;;5.22;1.88;;;;;;;24.14;51.91;100938.59;5053257;28;20037;-67
2023/07/31 00:09:13;;;;;;;5.72;2.50;;;;;;;24.15;51.99;100941.09;5037235;28;20037;-67
2023/07/31 00:11:38;;;;;;;7.05;1.80;;;;;;;24.12;52.00;100932.50;5054868;28;20404;-67
2023/07/31 00:14:03;;;;;;;5.13;2.25;;;;;;;24.13;52.18;100926.78;5054612;28;20112;-67
2023/07/31 00:16:29;;;;;;;5.20;1.98;;;;;;;24.15;52.16;100929.28;5054553;28;20059;-66
2023/07/31 00:18:54;;;;;;;12.15;1.77;;;;;;;24.15;52.03;100929.28;5053259;28;20083;-67
2023/07/31 00:21:20;;;;;;;8.15;1.63;;;;;;;24.14;52.46;100919.41;5053254;28;20060;-67
2023/07/31 00:23:45;;;;;;;5.80;1.63;;;;;;;24.15;51.80;100918.34;5054796;28;20526;-67
2023/07/31 00:26:11;;;;;;;8.35;3.03;;;;;;;24.15;52.03;100923.81;5053089;28;20033;-66
2023/07/31 00:28:36;;;;;;;3.97;1.42;;;;;;;24.12;52.21;100913.31;5053522;28;20065;-68
2023/07/31 00:31:03;;;;;;;8.77;2.45;;;;;;;24.15;52.27;100921.09;5053601;28;20029;-66
2023/07/31 00:33:29;;;;;;;7.82;1.70;;;;;;;24.12;51.95;100918.81;5053505;28;20033;-66
2023/07/31 00:35:54;;;;;;;9.18;2.25;;;;;;;24.12;52.33;100913.31;5052883;28;20034;-67
2023/07/31 00:38:20;;;;;;;6.57;2.00;;;;;;;24.06;51.92;100906.78;5053823;28;20033;-66
2023/07/31 00:40:45;;;;;;;8.75;1.75;;;;;;;24.06;51.92;100903.19;5053969;28;20047;-67
2023/07/31 00:43:10;;;;;;;2.78;1.92;;;;;;;24.03;51.99;100911.84;5053935;28;20037;-66
2023/07/31 00:45:36;;;;;;;4.72;2.63;;;;;;;24.08;52.18;100917.50;5035840;28;20029;-67
2023/07/31 00:48:01;;;;;;;10.48;2.42;;;;;;;24.06;51.79;100923.22;5052532;28;20112;-66
2023/07/31 00:50:28;;;;;;;7.93;1.73;;;;;;;24.05;51.41;100917.94;5052577;28;20106;-66
2023/07/31 00:52:53;;;;;;;4.93;1.90;;;;;;;24.04;51.54;100917.09;5052601;28;20029;-66
2023/07/31 00:55:19;;;;;;;6.57;2.08;;;;;;;24.06;51.61;100915.00;5052549;28;20032;-66
2023/07/31 00:57:45;;;;;;;4.38;1.90;;;;;;;24.07;51.45;100913.91;5053598;28;20065;-66
2023/07/31 01:00:11;;;;;;;6.30;2.13;;;;;;;24.04;51.42;100905.28;5052411;28;20572;-67
2023/07/31 01:02:36;;;;;;;8.60;2.08;;;;;;;24.04;52.00;100905.28;5052877;28;20124;-66
2023/07/31 01:05:03;;;;;;;10.10;2.38;;;;;;;24.05;51.98;100906.97;5052233;28;20052;-66
2023/07/31 01:07:38;;;;;;;6.25;2.03;;;;;;;24.05;51.79;100896.03;5052095;28;20033;-66
2023/07/31 01:10:24;;;;;;;7.82;2.20;;;;;;;24.04;51.37;100906.13;5053695;28;20468;-66
2023/07/31 01:12:51;;;;;;;6.55;1.70;;;;;;;24.02;52.36;100896.47;5052165;28;20041;-66
2023/07/31 01:15:17;;;;;;;7.40;1.70;;;;;;;24.00;51.79;100893.09;5053253;28;20045;-68
2023/07/31 01:17:44;;;;;;;6.07;1.77;;;;;;;24.03;51.36;100898.16;5052100;28;20028;-67
2023/07/31 01:20:17;;;;;;;12.05;2.33;;;;;;;24.01;52.13;100894.81;5051851;28;20411;-66
2023/07/31 01:23:09;;;;;;;5.03;2.30;;;;;;;24.10;51.92;100904.47;5035410;28;20032;-67
2023/07/31 01:25:59;;;;;;;8.50;2.63;;;;;;;24.10;51.31;100899.84;5035248;28;20063;-68
2023/07/31 01:28:31;;;;;;;10.77;2.15;;;;;;;24.05;51.23;100885.09;5052064;28;20033;-67
2023/07/31 01:30:59;;;;;;;9.55;2.08;;;;;;;24.13;52.01;100898.56;5052003;28;20037;-68
2023/07/31 01:33:24;;;;;;;5.07;1.50;;;;;;;24.15;51.88;100893.72;5051973;28;20049;-68
2023/07/31 01:35:50;;;;;;;4.53;1.90;;;;;;;24.13;51.67;100893.94;5052937;28;20496;-68
2023/07/31 01:38:20;;;;;;;3.88;1.77;;;;;;;24.15;51.74;100891.81;5050598;28;20043;-68
2023/07/31 01:40:51;;;;;;;7.00;2.30;;;;;;;24.18;51.43;100890.53;5035244;28;20046;-67
2023/07/31 01:43:16;;;;;;;7.60;3.45;;;;;;;24.19;51.90;100893.06;5052913;28;20071;-66
2023/07/31 01:45:42;;;;;;;11.48;3.33;;;;;;;24.21;51.88;100890.09;5052834;28;20048;-67
2023/07/31 01:48:07;;;;;;;5.32;1.67;;;;;;;24.21;51.57;100884.63;5053311;28;20033;-66
2023/07/31 01:50:32;;;;;;;3.35;1.45;;;;;;;24.20;51.28;100878.31;5051540;28;20060;-68
2023/07/31 01:52:58;;;;;;;6.15;2.05;;;;;;;24.22;51.33;100875.38;5051557;28;20049;-66
2023/07/31 01:55:23;;;;;;;5.70;2.10;;;;;;;24.24;51.98;100873.25;5034720;28;20040;-66
2023/07/31 01:57:49;;;;;;;3.97;1.50;;;;;;;24.26;51.49;100876.63;5052506;28;20592;-68
2023/07/31 02:00:14;;;;;;;6.25;1.52;;;;;;;24.26;51.36;100869.22;5052822;28;20105;-66
2023/07/31 02:02:39;;;;;;;9.45;1.98;;;;;;;24.22;51.39;100861.69;5051403;28;20041;-67
2023/07/31 02:05:05;;;;;;;8.48;2.83;;;;;;;24.28;51.98;100869.03;5051751;28;20055;-67
2023/07/31 02:07:31;;;;;;;6.07;1.98;;;;;;;24.28;51.26;100867.16;5051106;28;20044;-67
2023/07/31 02:09:56;;;;;;;4.57;2.13;;;;;;;24.28;51.54;100861.66;5051334;28;20045;-67
2023/07/31 02:12:21;;;;;;;6.90;1.92;;;;;;;24.28;52.12;100861.66;5052631;28;20029;-66
2023/07/31 02:14:47;;;;;;;5.22;1.95;;;;;;;24.26;51.55;100865.69;5050823;28;20424;-66
2023/07/31 02:17:12;;;;;;;4.95;1.90;;;;;;;24.26;51.83;100854.72;5051853;28;20080;-67
2023/07/31 02:19:37;;;;;;;6.28;1.98;;;;;;;24.27;51.83;100861.88;5052791;28;20035;-66
2023/07/31 02:22:03;;;;;;;7.88;1.90;;;;;;;24.24;51.73;100849.44;5052776;28;20061;-66
2023/07/31 02:24:28;;;;;;;6.68;1.98;;;;;;;24.26;51.82;100846.50;5052360;28;20055;-67
2023/07/31 02:26:54;;;;;;;6.03;2.00;;;;;;;24.29;51.44;100849.63;5053965;28;20466;-66
2023/07/31 02:29:19;;;;;;;4.20;1.92;;;;;;;24.30;52.07;100847.75;5053886;28;20060;-66
2023/07/31 02:31:45;;;;;;;5.22;2.28;;;;;;;24.29;51.59;100837.84;5052806;28;20044;-68
2023/07/31 02:34:10;;;;;;;8.45;2.25;;;;;;;24.36;51.83;100837.81;5053556;28;20112;-66
2023/07/31 02:36:35;;;;;;;3.63;1.75;;;;;;;24.36;51.35;100833.19;5052601;28;20452;-66
2023/07/31 02:39:01;;;;;;;9.02;2.05;;;;;;;24.37;51.79;100834.88;5052443;28;20114;-66
2023/07/31 02:41:26;;;;;;;8.50;1.88;;;;;;;24.39;51.35;100831.91;5052653;28;20488;-66
2023/07/31 02:43:51;;;;;;;5.50;2.40;;;;;;;24.40;51.44;100834.41;5050896;28;20449;-66
2023/07/31 02:46:17;;;;;;;8.60;2.05;;;;;;;24.38;51.43;100827.47;5052194;28;20025;-67
2023/07/31 02:48:43;;;;;;;7.97;2.10;;;;;;;24.39;51.64;100827.25;5052048;28;20497;-66
2023/07/31 02:51:08;;;;;;;6.72;1.83;;;;;;;24.42;51.50;100826.84;5055490;28;20594;-66
2023/07/31 02:53:35;;;;;;;6.97;1.75;;;;;;;24.44;51.77;100823.84;5056077;28;20029;-67
2023/07/31 02:56:00;;;;;;;7.68;2.15;;;;;;;24.45;51.08;100822.81;5055146;28;20029;-66
2023/07/31 02:58:25;;;;;;;7.22;2.28;;;;;;;24.43;51.32;100816.72;5038101;28;20033;-67
2023/07/31 03:00:51;;;;;;;4.93;2.33;;;;;;;24.39;51.25;100815.47;5055758;28;20053;-66
2023/07/31 03:03:16;;;;;;;6.25;2.20;;;;;;;24.42;51.34;100824.09;5055888;28;20401;-65
2023/07/31 03:05:41;;;;;;;4.45;2.20;;;;;;;24.42;51.92;100820.50;5054346;28;20036;-67
2023/07/31 03:08:07;;;;;;;3.28;1.95;;;;;;;24.41;51.40;100819.66;5055756;28;20500;-67
2023/07/31 03:10:32;;;;;;;4.55;2.33;;;;;;;24.40;51.45;100807.00;5055706;28;20037;-67
2023/07/31 03:12:58;;;;;;;7.63;2.42;;;;;;;24.39;51.22;100819.06;5054570;28;20033;-67
2023/07/31 03:15:23;;;;;;;7.80;2.00;;;;;;;24.39;50.81;100810.84;5054223;28;20044;-67
2023/07/31 03:17:49;;;;;;;6.95;2.38;;;;;;;24.40;51.33;100811.69;5054418;28;20091;-67
2023/07/31 03:20:14;;;;;;;5.78;2.22;;;;;;;24.43;51.42;100803.84;5054155;28;20029;-66
2023/07/31 03:22:39;;;;;;;9.05;1.98;;;;;;;24.45;51.26;100809.97;5054274;28;20488;-67
2023/07/31 03:25:05;;;;;;;9.10;2.00;;;;;;;24.44;51.42;100801.94;5054105;28;20404;-67
2023/07/31 03:27:30;;;;;;;7.00;1.92;;;;;;;24.43;51.16;100805.75;5053987;28;20044;-66
2023/07/31 03:29:56;;;;;;;5.70;1.88;;;;;;;24.43;51.48;100806.59;5055289;28;20411;-65
2023/07/31 03:32:22;;;;;;;7.20;2.20;;;;;;;24.45;51.44;100801.75;5054189;28;20033;-66
2023/07/31 03:34:49;;;;;;;8.30;2.35;;;;;;;24.48;51.20;100803.19;5053878;28;20033;-67
2023/07/31 03:37:14;;;;;;;4.28;1.50;;;;;;;24.48;51.19;100797.72;5055198;28;20035;-66
2023/07/31 03:39:40;;;;;;;6.78;2.53;;;;;;;24.50;51.31;100799.19;5055245;28;20115;-66
2023/07/31 03:42:05;;;;;;;9.65;1.90;;;;;;;24.48;51.16;100787.63;5037208;28;20029;-67
2023/07/31 03:44:31;;;;;;;8.77;2.60;;;;;;;24.51;51.51;100791.81;5055087;28;20481;-66
2023/07/31 03:46:56;;;;;;;5.70;2.03;;;;;;;24.52;51.54;100788.84;5053640;28;20029;-66
2023/07/31 03:49:21;;;;;;;9.70;2.45;;;;;;;24.52;51.29;100780.63;5053790;28;20516;-66
2023/07/31 03:51:47;;;;;;;12.38;2.38;;;;;;;24.52;51.25;100774.28;5054940;28;20116;-66
2023/07/31 03:54:13;;;;;;;8.85;2.72;;;;;;;24.50;51.38;100770.94;5036880;28;20098;-65
2023/07/31 03:56:39;;;;;;;7.57;2.53;;;;;;;24.51;51.07;100769.91;5036939;28;20026;-65
2023/07/31 03:59:04;;;;;;;5.43;2.58;;;;;;;24.51;51.58;100769.91;5036790;28;20112;-66
2023/07/31 04:01:30;;;;;;;4.03;2.17;;;;;;;24.51;51.00;100769.91;5053408;28;20041;-66
2023/07/31 04:03:55;;;;;;;7.18;2.30;;;;;;;24.48;51.29;100762.97;5053879;28;20067;-65
2023/07/31 04:06:21;;;;;;;5.88;2.40;;;;;;;24.50;51.58;100768.19;5053408;28;20033;-67
2023/07/31 04:08:46;;;;;;;6.72;2.10;;;;;;;24.48;51.49;100760.22;5053702;28;20083;-66
2023/07/31 04:11:14;;;;;;;6.35;2.00;;;;;;;24.45;51.36;100760.66;5054649;28;20381;-66
2023/07/31 04:13:40;;;;;;;3.55;2.47;;;;;;;24.45;51.52;100755.19;5053271;28;20090;-66
2023/07/31 04:16:05;;;;;;;12.00;3.53;;;;;;;24.47;51.57;100752.22;5053578;28;20033;-66
2023/07/31 04:18:31;;;;;;;3.38;1.83;;;;;;;24.44;50.99;100750.75;5053271;28;20044;-65
2023/07/31 04:20:58;;;;;;;6.18;2.47;;;;;;;24.40;51.51;100741.28;5053294;28;20400;-66
2023/07/31 04:23:23;;;;;;;8.38;3.05;;;;;;;24.45;51.12;100744.22;5053399;28;20048;-66
2023/07/31 04:25:49;;;;;;;5.78;2.05;;;;;;;24.48;51.20;100740.22;5054218;28;20071;-66
2023/07/31 04:28:14;;;;;;;3.95;2.30;;;;;;;24.49;51.69;100734.50;5053108;28;20576;-65
2023/07/31 04:30:40;;;;;;;7.93;2.78;;;;;;;24.52;51.52;100734.03;5053209;28;20078;-66
2023/07/31 04:33:06;;;;;;;3.88;2.20;;;;;;;24.53;51.25;100722.03;5053118;28;20040;-67
2023/07/31 04:35:31;;;;;;;8.07;2.13;;;;;;;24.55;50.88;100727.28;5054266;28;20029;-66
2023/07/31 04:37:57;;;;;;;4.15;1.85;;;;;;;24.54;51.06;100731.91;5054451;28;20544;-66
2023/07/31 04:40:22;;;;;;;6.50;2.15;;;;;;;24.58;50.97;100733.16;5053916;28;20029;-66
2023/07/31 04:42:47;;;;;;;3.20;1.98;;;;;;;24.59;51.26;100723.91;5036229;28;20036;-67
2023/07/31 04:45:14;;;;;;;2.47;1.67;;;;;;;24.63;51.05;100730.59;5054705;28;20029;-66
2023/07/31 04:47:40;;;;;;;3.47;1.65;;;;;;;24.62;51.07;100731.63;5052584;28;20029;-67
2023/07/31 04:50:06;;;;;;;6.30;2.13;;;;;;;24.63;51.01;100722.38;5053902;28;20382;-67
2023/07/31 04:52:31;;;;;;;3.42;2.47;;;;;;;24.63;51.13;100722.38;5035605;28;20029;-66
2023/07/31 04:54:57;;;;;;;5.70;1.42;;;;;;;24.66;51.21;100726.56;5053797;28;20083;-66
2023/07/31 04:57:22;;;;;;;7.53;2.10;;;;;;;24.66;50.88;100724.66;5053742;28;20037;-66
2023/07/31 04:59:48;;;;;;;15.35;2.30;;;;;;;24.63;50.95;100711.41;5052429;28;20405;-66
2023/07/31 05:02:13;;;;;;;4.03;1.88;;;;;;;24.64;51.02;100720.47;5052063;28;20068;-67
2023/07/31 05:04:39;;;;;;;4.78;1.75;;;;;;;24.61;51.15;100705.31;5052354;28;20611;-66
2023/07/31 05:07:04;;;;;;;10.20;3.83;;;;;;;24.64;51.13;100706.78;5053539;28;20040;-66
2023/07/31 05:09:29;;;;;;;6.05;1.92;;;;;;;24.57;51.04;100692.28;5053605;28;20040;-66
2023/07/31 05:11:55;;;;;;;5.25;2.03;;;;;;;24.57;51.30;100693.13;5052133;28;20029;-65
2023/07/31 05:14:21;;;;;;;5.03;1.85;;;;;;;24.52;51.25;100701.19;5053192;28;20033;-64
2023/07/31 05:16:46;;;;;;;2.67;1.60;;;;;;;24.48;51.52;100699.97;5052380;28;20524;-64
2023/07/31 05:19:11;;;;;;;5.97;1.90;;;;;;;24.37;51.33;100703.41;5052423;28;20059;-67
2023/07/31 05:21:37;;;;;;;6.28;1.80;;;;;;;24.28;51.65;100696.53;5052406;28;20033;-65
2023/07/31 05:24:04;;;;;;;7.53;1.70;;;;;;;24.26;52.17;100701.41;5052029;28;20504;-68
2023/07/31 05:26:29;;;;;;;5.63;1.98;;;;;;;24.17;51.98;100691.78;5053679;28;20033;-67
2023/07/31 05:28:55;;;;;;;5.25;2.13;;;;;;;24.16;52.17;100696.41;5052811;28;20025;-68
2023/07/31 05:31:22;;;;;;;3.10;1.70;;;;;;;24.13;52.08;100701.47;5052328;28;20052;-69
2023/07/31 05:33:49;;;;;;;4.43;1.85;;;;;;;24.06;51.99;100706.13;5052055;28;20025;-68
2023/07/31 05:36:15;;;;;;;7.85;1.90;;;;;;;24.02;52.47;100710.34;5051945;28;20469;-69
2023/07/31 05:38:40;;;;;;;4.18;1.80;;;;;;;23.95;52.42;100704.94;5052350;28;20070;-69
2023/07/31 05:41:05;;;;;;;2.65;1.40;;;;;;;23.97;52.93;100707.44;5052441;28;20017;-69
2023/07/31 05:43:31;;;;;;;4.82;1.83;;;;;;;23.95;52.75;100695.88;5053404;28;20369;-69
2023/07/31 05:45:56;;;;;;;5.47;1.73;;;;;;;23.99;52.66;100694.38;5035215;28;20102;-68
2023/07/31 05:48:22;;;;;;;5.53;1.83;;;;;;;24.04;52.81;100697.28;5050907;28;20469;-68
2023/07/31 05:50:47;;;;;;;4.20;1.75;;;;;;;24.07;52.11;100691.34;5052701;28;20025;-68
2023/07/31 05:53:12;;;;;;;4.20;1.80;;;;;;;24.12;52.82;100686.13;5034693;28;20151;-69
2023/07/31 05:55:38;;;;;;;4.30;2.17;;;;;;;24.19;52.75;100685.00;5051663;28;20491;-68
2023/07/31 05:58:03;;;;;;;5.00;2.10;;;;;;;24.26;52.20;100690.44;5035161;28;20040;-71
2023/07/31 06:00:28;;;;;;;3.78;2.13;;;;;;;24.27;52.30;100684.72;5034698;28;20027;-68
2023/07/31 06:02:54;;;;;;;2.90;1.48;;;;;;;24.30;52.45;100678.81;5051000;28;20053;-68
2023/07/31 06:05:20;;;;;;;2.95;1.60;;;;;;;24.36;52.35;100682.56;5051529;28;20065;-70
2023/07/31 06:07:45;;;;;;;5.38;2.20;;;;;;;24.39;52.32;100687.59;5051886;28;20033;-67
2023/07/31 06:10:11;;;;;;;4.15;1.75;;;;;;;24.43;52.22;100685.25;5018286;28;20033;-68
2023/07/31 06:12:36;;;;;;;6.00;1.50;;;;;;;24.46;51.81;100680.16;5051301;28;20048;-69
2023/07/31 06:15:03;;;;;;;5.82;1.90;;;;;;;24.49;52.14;100679.72;5050509;28;21224;-68
2023/07/31 06:17:29;;;;;;;3.58;2.17;;;;;;;24.51;51.97;100677.56;5018188;28;20083;-68
2023/07/31 06:19:56;;;;;;;4.28;1.70;;;;;;;24.51;52.33;100677.56;5034967;28;20044;-68
2023/07/31 06:22:21;;;;;;;3.05;1.20;;;;;;;24.54;52.14;100674.38;5052364;28;20500;-70
2023/07/31 06:24:46;;;;;;;4.43;1.95;;;;;;;24.54;52.43;100674.38;5052155;28;20103;-69
2023/07/31 06:27:12;;;;;;;2.92;1.27;;;;;;;24.57;51.95;100673.09;5055208;28;20029;-67
2023/07/31 06:29:37;;;;;;;10.63;1.90;;;;;;;24.55;52.15;100677.97;5056357;28;20025;-66
2023/07/31 06:32:03;;;;;;;6.63;2.00;;;;;;;24.55;52.00;100675.25;5056421;28;20040;-67
2023/07/31 06:34:28;;;;;;;2.38;1.38;;;;;;;24.53;51.96;100689.16;5056112;28;20049;-70
2023/07/31 06:36:54;;;;;;;4.22;2.00;;;;;;;24.48;52.24;100685.44;5056089;28;20040;-69
2023/07/31 06:39:20;;;;;;;6.53;1.95;;;;;;;24.48;52.09;100688.16;5055089;28;20432;-70
2023/07/31 06:41:45;;;;;;;3.10;1.63;;;;;;;24.42;51.91;100687.16;5038177;28;20115;-70
2023/07/31 06:44:11;;;;;;;3.25;1.60;;;;;;;24.38;52.49;100688.66;5055184;28;20032;-69
2023/07/31 06:46:36;;;;;;;4.10;1.90;;;;;;;24.32;52.98;100689.53;5038556;28;20036;-67
2023/07/31 06:49:01;;;;;;;3.40;1.48;;;;;;;24.22;52.64;100679.09;5055907;28;20358;-66
2023/07/31 06:51:27;;;;;;;7.35;1.73;;;;;;;24.13;52.86;100685.03;5055816;28;20061;-67
2023/07/31 06:53:52;;;;;;;5.40;2.15;;;;;;;24.02;52.73;100683.81;5038233;28;20095;-67
2023/07/31 06:56:18;;;;;;;3.20;1.55;;;;;;;23.89;53.66;100675.69;5037802;28;20052;-68
2023/07/31 06:58:43;;;;;;;4.15;1.23;;;;;;;23.82;53.24;100679.50;5054608;28;20037;-68
2023/07/31 07:01:08;;;;;;;4.00;1.67;;;;;;;23.73;53.22;100674.31;5055304;28;20411;-68
2023/07/31 07:03:34;;;;;;;6.45;1.58;;;;;;;23.66;53.61;100678.13;5054440;28;20067;-69
2023/07/31 07:06:00;;;;;;;5.60;1.33;;;;;;;23.63;53.74;100675.84;5054264;28;20033;-69
2023/07/31 07:08:25;;;;;;;2.92;1.33;;;;;;;23.60;54.38;100684.47;5055530;28;20419;-70
2023/07/31 07:10:50;;;;;;;3.17;1.52;;;;;;;23.57;53.57;100690.38;5055390;28;20121;-70
2023/07/31 07:13:18;;;;;;;4.72;2.05;;;;;;;23.53;54.42;100681.78;5054221;28;20040;-69
2023/07/31 07:15:43;;;;;;;4.28;1.50;;;;;;;23.61;54.20;100678.81;5055559;28;20049;-69
2023/07/31 07:18:10;;;;;;;3.63;1.67;;;;;;;23.62;54.15;100683.19;5054482;28;20535;-68
2023/07/31 07:20:35;;;;;;;3.03;1.38;;;;;;;23.61;53.87;100675.22;5054413;28;20041;-68
2023/07/31 07:23:01;;;;;;;4.13;1.58;;;;;;;23.59;53.81;100672.69;5055352;28;20025;-69
2023/07/31 07:25:26;;;;;;;5.00;1.77;;;;;;;23.60;54.57;100671.63;5037473;28;20037;-70
2023/07/31 07:27:51;;;;;;;2.88;1.38;;;;;;;23.62;54.40;100671.41;5054216;28;20466;-70
2023/07/31 07:30:17;;;;;;;4.28;2.03;;;;;;;23.64;54.22;100670.16;5037287;28;20113;-69
2023/07/31 07:32:43;;;;;;;6.03;1.40;;;;;;;23.78;54.20;100659.97;5053898;28;20116;-69
2023/07/31 07:35:08;;;;;;;3.28;1.30;;;;;;;23.95;53.96;100652.94;5054853;28;20067;-68
2023/07/31 07:37:34;;;;;;;2.28;1.45;;;;;;;24.07;53.70;100647.56;5053544;28;20584;-69
2023/07/31 07:40:00;;;;;;;4.40;2.08;;;;;;;24.24;53.00;100654.22;5055559;28;20084;-69
2023/07/31 07:42:25;;;;;;;3.55;1.67;;;;;;;24.38;53.34;100650.31;5056393;28;20035;-69
2023/07/31 07:44:50;;;;;;;4.88;2.30;;;;;;;24.45;53.09;100639.31;5037243;28;20052;-69
2023/07/31 07:47:16;;;;;;;2.75;1.63;;;;;;;24.64;52.73;100639.13;5054785;28;20065;-68
2023/07/31 07:49:41;;;;;;;4.45;1.63;;;;;;;24.83;52.90;100627.16;5037156;28;20493;-69
2023/07/31 07:52:07;;;;;;;5.97;2.28;;;;;;;25.00;52.67;100626.56;5036874;28;20037;-68
2023/07/31 07:54:32;;;;;;;2.63;1.60;;;;;;;25.13;52.59;100626.38;5054601;28;20064;-69
2023/07/31 07:56:58;;;;;;;6.78;1.55;;;;;;;25.20;52.65;100638.13;5053263;28;20480;-69
2023/07/31 07:59:23;;;;;;;3.20;1.58;;;;;;;25.20;52.71;100633.50;5053260;28;20108;-69
2023/07/31 08:01:49;;;;;;;2.75;1.50;;;;;;;25.11;52.02;100634.84;5054665;28;20124;-68
2023/07/31 08:04:14;;;;;;;3.63;1.77;;;;;;;25.07;52.49;100644.59;5036624;28;20037;-67
2023/07/31 08:06:39;;;;;;;3.35;1.58;;;;;;;25.05;52.40;100635.75;5053307;28;20068;-68
2023/07/31 08:09:06;;;;;;;3.45;1.50;;;;;;;25.03;52.02;100637.06;5054384;28;20044;-69
2023/07/31 08:11:32;;;;;;;4.80;1.48;;;;;;;25.03;52.52;100623.34;5053340;28;20098;-67
2023/07/31 08:13:57;;;;;;;3.70;1.60;;;;;;;25.00;52.42;100638.34;5053380;28;20029;-65
2023/07/31 08:16:23;;;;;;;4.97;1.85;;;;;;;24.99;52.52;100638.56;5053099;28;20036;-66
2023/07/31 08:18:49;;;;;;;2.42;1.08;;;;;;;25.01;52.26;100633.72;5054184;28;20037;-65
2023/07/31 08:21:14;;;;;;;3.42;1.45;;;;;;;25.03;52.48;100631.56;5054088;28;20033;-66
2023/07/31 08:23:40;;;;;;;4.10;1.60;;;;;;;25.01;52.15;100628.25;5036430;28;20063;-67
2023/07/31 08:26:05;;;;;;;2.47;1.50;;;;;;;25.08;52.15;100623.50;5052747;28;20043;-68
2023/07/31 08:28:31;;;;;;;2.70;1.90;;;;;;;25.07;52.35;100622.66;5052969;28;20029;-69
2023/07/31 08:30:56;;;;;;;3.35;1.35;;;;;;;25.03;52.09;100632.41;5052622;28;20377;-66
2023/07/31 08:33:21;;;;;;;5.15;1.70;;;;;;;24.98;52.21;100617.72;5052643;28;20095;-68
2023/07/31 08:35:48;;;;;;;3.00;1.80;;;;;;;25.01;52.31;100633.72;5054208;28;20119;-68
2023/07/31 08:38:13;;;;;;;6.53;2.38;;;;;;;25.07;52.09;100622.66;5052961;28;20025;-67
2023/07/31 08:40:39;;;;;;;4.43;1.58;;;;;;;25.24;51.88;100617.38;5052594;28;20052;-66
2023/07/31 08:43:04;;;;;;;7.53;1.65;;;;;;;25.39;51.82;100618.69;5052526;28;20451;-66
2023/07/31 08:45:30;;;;;;;3.50;1.70;;;;;;;25.44;51.73;100627.06;5052559;28;20029;-68
2023/07/31 08:47:57;;;;;;;3.05;1.20;;;;;;;25.40;52.27;100622.28;5051864;28;20059;-70
2023/07/31 08:50:22;;;;;;;2.63;1.52;;;;;;;25.38;52.25;100618.91;5035967;28;20079;-69
2023/07/31 08:52:49;;;;;;;4.70;1.60;;;;;;;25.46;51.78;100622.16;5052532;28;20028;-71
2023/07/31 08:55:15;;;;;;;3.15;1.50;;;;;;;25.57;51.76;100622.50;5035651;28;20508;-71
2023/07/31 08:57:42;;;;;;;3.10;1.60;;;;;;;25.70;51.73;100616.81;5052226;28;20041;-71
2023/07/31 09:00:09;;;;;;;2.45;1.52;;;;;;;25.83;51.61;100614.72;5052368;28;20488;-71
2023/07/31 09:02:39;;;;;;;2.80;1.60;;;;;;;25.88;51.99;100612.09;5051965;28;20479;-71
2023/07/31 09:05:06;;;;;;;5.75;2.05;;;;;;;25.89;51.75;100611.03;5053308;28;20041;-69
2023/07/31 09:07:33;;;;;;;2.70;1.50;;;;;;;25.98;51.91;100609.63;5035616;28;20044;-70
2023/07/31 09:09:58;;;;;;;4.90;1.85;;;;;;;25.98;51.95;100626.09;5035581;28;20040;-69
2023/07/31 09:12:25;;;;;;;3.33;1.60;;;;;;;26.01;51.47;100620.16;5052289;28;20496;-69
2023/07/31 09:14:50;;;;;;;1.95;1.20;;;;;;;25.97;51.80;100618.94;5052288;28;20037;-70
2023/07/31 09:17:18;;;;;;;4.50;2.22;;;;;;;25.87;51.13;100599.47;5035225;28;20509;-70
2023/07/31 09:19:43;;;;;;;4.95;1.75;;;;;;;25.80;50.95;100615.19;5053252;28;20057;-69
2023/07/31 09:22:08;;;;;;;2.58;1.27;;;;;;;25.74;51.43;100618.84;5051910;28;20618;-69
2023/07/31 09:24:34;;;;;;;3.25;1.65;;;;;;;25.70;51.29;100620.41;5053238;28;20041;-69
2023/07/31 09:27:00;;;;;;;4.45;1.45;;;;;;;25.63;51.90;100619.66;5053050;28;20516;-68
2023/07/31 09:29:27;;;;;;;2.10;1.30;;;;;;;25.60;51.68;100608.31;5053341;28;20033;-69
2023/07/31 09:31:54;;;;;;;3.80;2.38;;;;;;;25.60;51.51;100606.38;5051936;28;20132;-69
2023/07/31 09:34:20;;;;;;;6.13;2.25;;;;;;;25.69;51.74;100607.75;5053377;28;20033;-69
2023/07/31 09:36:47;;;;;;;4.25;1.70;;;;;;;25.78;51.01;100602.75;5051559;28;20143;-69
2023/07/31 09:39:13;;;;;;;4.07;1.42;;;;;;;25.88;51.31;100598.38;5051585;28;20503;-69
2023/07/31 09:41:40;;;;;;;3.22;1.75;;;;;;;25.93;51.22;100601.28;5052428;28;20090;-70
2023/07/31 09:44:06;;;;;;;3.20;1.40;;;;;;;26.05;50.88;100591.13;5053023;28;20056;-69
2023/07/31 09:46:31;;;;;;;3.40;1.55;;;;;;;26.20;50.77;100582.47;5053582;28;20033;-69
2023/07/31 09:49:09;;;;;;;3.38;1.52;;;;;;;26.37;50.48;100593.59;5053009;28;20029;-69
2023/07/31 09:51:38;;;;;;;3.72;1.80;;;;;;;26.61;50.65;100592.50;5051328;28;20043;-69
2023/07/31 09:54:10;;;;;;;2.85;1.10;;;;;;;26.91;50.44;100582.22;5051462;28;20037;-70
2023/07/31 09:56:37;;;;;;;2.28;1.30;;;;;;;26.95;50.26;100580.69;5051322;28;20071;-69
2023/07/31 09:59:04;;;;;;;5.78;1.50;;;;;;;26.94;50.35;100592.75;5050556;28;20044;-68
2023/07/31 10:01:29;;;;;;;4.53;1.27;;;;;;;26.85;50.90;100583.22;5051212;28;20194;-69
2023/07/31 10:03:55;;;;;;;2.00;1.33;;;;;;;26.88;49.82;100588.22;5051371;28;20040;-69
2023/07/31 10:06:22;;;;;;;2.88;1.17;;;;;;;26.89;50.60;100584.38;5034311;28;20037;-68
2023/07/31 10:08:49;;;;;;;2.78;1.42;;;;;;;26.92;50.01;100575.66;5051634;28;20040;-67
2023/07/31 10:11:15;;;;;;;2.95;0.98;;;;;;;26.94;49.89;100592.75;5051082;28;20492;-69
2023/07/31 10:13:41;;;;;;;2.80;0.90;;;;;;;26.96;50.18;100576.03;5051028;28;20043;-68
2023/07/31 10:16:07;;;;;;;2.30;1.02;;;;;;;26.86;49.94;100587.63;5051055;28;20420;-68
2023/07/31 10:18:32;;;;;;;2.40;1.27;;;;;;;26.84;50.28;100587.03;5051050;28;20029;-68
2023/07/31 10:20:58;;;;;;;1.35;0.98;;;;;;;26.86;49.84;100592.28;5051133;28;20450;-68
2023/07/31 10:23:25;;;;;;;1.65;1.00;;;;;;;26.82;50.26;100589.19;5052621;28;20071;-68
2023/07/31 10:25:53;;;;;;;6.95;1.13;;;;;;;26.86;49.15;100578.53;5034871;28;20112;-68
2023/07/31 10:28:18;;;;;;;1.13;0.57;;;;;;;26.97;50.18;100578.50;5052325;28;20497;-68
2023/07/31 10:30:44;;;;;;;3.08;0.90;;;;;;;26.98;49.62;100577.44;5052419;28;20504;-68
2023/07/31 10:33:09;;;;;;;1.60;0.82;;;;;;;26.93;49.44;100541.59;5052223;28;20128;-68
2023/07/31 10:35:35;;;;;;;3.45;1.00;;;;;;;26.90;49.06;100552.25;5051368;28;20061;-69
2023/07/31 10:38:11;;;;;;;0.98;0.60;;;;;;;26.83;49.39;100562.53;5043846;28;20028;-69
2023/07/31 10:40:37;;;;;;;1.42;0.90;;;;;;;26.84;49.52;100565.03;5052583;28;20354;-68
2023/07/31 10:43:02;;;;;;;2.30;0.57;;;;;;;26.80;50.05;100569.34;5051264;28;20040;-68
2023/07/31 10:45:33;;;;;;;1.52;0.90;;;;;;;26.76;50.13;100576.38;5034497;28;20044;-67
2023/07/31 10:48:02;;;;;;;1.98;0.80;;;;;;;26.84;48.92;100565.03;5050755;28;20037;-67
2023/07/31 10:50:29;;;;;;;1.48;1.05;;;;;;;26.93;49.41;100558.09;5052098;28;20432;-67
2023/07/31 10:53:07;;;;;;;2.28;0.90;;;;;;;27.07;49.15;100553.16;5033448;28;20025;-65
2023/07/31 10:55:41;;;;;;;1.70;0.90;;;;;;;27.03;49.59;100555.53;5051149;28;20032;-69
2023/07/31 10:58:11;;;;;;;1.90;0.80;;;;;;;27.12;49.37;100556.00;5034313;28;20037;-68
2023/07/31 11:00:39;;;;;;;0.88;0.70;;;;;;;27.39;48.42;100567.25;5052131;28;20481;-68
2023/07/31 11:03:18;;;;;;;2.00;0.90;;;;;;;27.71;48.86;100560.19;5051830;28;20052;-67
2023/07/31 11:06:18;;;;;;;1.65;1.02;;;;;;;28.24;47.14;100548.75;5050771;28;20033;-67
2023/07/31 11:08:46;;;;;;;1.63;1.17;;;;;;;28.15;48.27;100556.59;5052219;28;20063;-67
2023/07/31 11:11:16;;;;;;;1.67;1.00;;;;;;;28.16;48.53;100563.78;5052577;28;20500;-67
2023/07/31 11:13:49;;;;;;;1.63;1.00;;;;;;;28.18;48.71;100563.50;5038075;28;20033;-69
2023/07/31 11:16:15;;;;;;;2.20;1.33;;;;;;;28.15;48.10;100562.09;5037900;28;20033;-68
2023/07/31 11:18:41;;;;;;;2.70;1.10;;;;;;;28.01;48.83;100569.00;5054791;28;20091;-69
2023/07/31 11:21:08;;;;;;;3.13;1.10;;;;;;;27.92;48.42;100569.66;5055719;28;20060;-63